Time;durP1;ratioP1;P1;durP2;ratioP2;P2;SDS_P1;SDS_P2;PMS_P1;PMS_P2;Temp;Humidity;BMP_temperature;BMP_pressure;BME280_temperature;BME280_humidity;BME280_pressure;Samples;Min_cycle;Max_cycle;Signal;HPM_P1;HPM_P2
2021/12/05 00:20:37;;;;;;;17.40;12.23;;;0.90;99.90;;;;;;5022687;28;20198;-78
2021/12/05 00:23:09;;;;;;;15.23;10.63;;;1.00;99.90;;;;;;5009483;28;20174;-79
2021/12/05 00:25:36;;;;;;;17.20;11.87;;;0.90;99.90;;;;;;5015451;28;20625;-78
2021/12/05 00:36:55;;;;;;;16.03;11.37;;;0.80;99.90;;;;;;5032111;28;20166;-78
2021/12/05 00:49:16;;;;;;;18.70;11.87;;;0.90;99.90;;;;;;5023058;28;20213;-79
2021/12/05 00:54:45;;;;;;;17.97;12.10;;;0.80;99.90;;;;;;5024180;28;20202;-79
2021/12/05 01:03:01;;;;;;;17.60;12.83;;;0.80;99.90;;;;;;5034457;28;20277;-78
2021/12/05 01:16:44;;;;;;;20.00;13.37;;;0.80;99.90;;;;;;5025718;28;20170;-78
2021/12/05 01:19:14;;;;;;;17.70;11.87;;;0.80;99.90;;;;;;5021588;28;20297;-80
2021/12/05 01:21:44;;;;;;;18.57;12.57;;;0.80;99.90;;;;;;5004159;28;20198;-79
2021/12/05 01:27:09;;;;;;;16.33;12.03;;;0.80;99.90;;;;;;5034663;28;20271;-81
2021/12/05 01:35:06;;;;;;;16.13;11.83;;;0.80;99.90;;;;;;5029371;28;20182;-79
2021/12/05 01:40:39;;;;;;;18.53;12.00;;;0.80;99.90;;;;;;5049704;28;20186;-79
2021/12/05 01:48:55;;;;;;;18.43;13.10;;;0.80;99.90;;;;;;5038349;28;20200;-79
2021/12/05 02:15:56;;;;;;;22.57;14.33;;;0.90;99.90;;;;;;5033552;28;20179;-79
2021/12/05 02:32:25;;;;;;;24.13;16.13;;;1.00;99.90;;;;;;5024294;28;20203;-78
2021/12/05 02:43:19;;;;;;;21.77;14.30;;;1.00;99.90;;;;;;5015022;28;20725;-80
2021/12/05 02:45:34;;;;;;;22.17;15.00;;;1.10;99.90;;;;;;5026722;28;20639;-80
2021/12/05 02:48:00;;;;;;;23.57;15.50;;;1.10;99.90;;;;;;5010945;28;20186;-78
2021/12/05 02:50:30;;;;;;;24.07;16.17;;;1.00;99.90;;;;;;5012479;28;20244;-79
2021/12/05 02:53:02;;;;;;;23.80;15.60;;;1.00;99.90;;;;;;5015996;28;20218;-79
2021/12/05 02:55:37;;;;;;;27.43;16.83;;;1.10;99.90;;;;;;5017710;28;20173;-79
2021/12/05 02:58:22;;;;;;;23.17;15.47;;;1.20;99.90;;;;;;5016258;28;20178;-79
2021/12/05 03:03:22;;;;;;;23.20;15.60;;;1.30;99.90;;;;;;5024431;28;20197;-80
2021/12/05 03:05:54;;;;;;;23.33;16.03;;;1.30;99.90;;;;;;4999831;28;20175;-80
2021/12/05 03:08:20;;;;;;;23.63;16.33;;;1.30;99.90;;;;;;5005470;28;20612;-79
2021/12/05 03:10:46;;;;;;;25.03;16.73;;;1.10;99.90;;;;;;4996079;28;20174;-79
2021/12/05 03:13:12;;;;;;;27.77;17.07;;;1.10;99.90;;;;;;5001534;28;20274;-79
2021/12/05 03:15:39;;;;;;;26.40;16.73;;;1.10;99.90;;;;;;5002636;28;20640;-80
2021/12/05 03:18:05;;;;;;;25.00;16.80;;;1.20;99.90;;;;;;5008091;28;20178;-80
2021/12/05 03:20:31;;;;;;;28.60;16.67;;;1.20;99.90;;;;;;5005674;28;20615;-79
2021/12/05 03:22:57;;;;;;;24.97;16.33;;;1.10;99.90;;;;;;5010331;28;20187;-79
2021/12/05 03:25:25;;;;;;;25.70;16.70;;;1.10;99.90;;;;;;5016640;28;20194;-79
2021/12/05 03:27:53;;;;;;;28.13;16.73;;;1.00;99.90;;;;;;5009237;28;20202;-79
2021/12/05 03:30:22;;;;;;;31.73;17.17;;;1.10;99.90;;;;;;5002546;28;20247;-80
2021/12/05 03:32:50;;;;;;;31.53;17.33;;;1.00;99.90;;;;;;5033283;23;20671;-79
2021/12/05 03:35:19;;;;;;;29.50;17.37;;;1.00;99.90;;;;;;5044751;28;20224;-79
2021/12/05 03:37:47;;;;;;;34.50;18.40;;;1.00;99.90;;;;;;5049026;28;20184;-79
2021/12/05 03:40:16;;;;;;;28.90;16.17;;;1.00;99.90;;;;;;5055685;28;20628;-81
2021/12/05 03:42:42;;;;;;;31.47;17.40;;;1.20;99.90;;;;;;5042825;28;20208;-79
2021/12/05 03:45:14;;;;;;;34.50;19.23;;;1.10;99.90;;;;;;5035524;28;20177;-79
2021/12/05 03:47:40;;;;;;;33.53;19.00;;;1.10;99.90;;;;;;5033562;28;20564;-79
2021/12/05 03:50:10;;;;;;;39.90;18.77;;;1.00;99.90;;;;;;5034983;28;20528;-79
2021/12/05 03:52:37;;;;;;;29.93;17.60;;;1.00;99.90;;;;;;5031199;28;20576;-79
2021/12/05 03:55:06;;;;;;;38.47;19.17;;;1.00;99.90;;;;;;5066157;28;20176;-79
2021/12/05 03:57:32;;;;;;;37.00;19.57;;;1.00;99.90;;;;;;5033345;28;20223;-79
2021/12/05 04:00:09;;;;;;;37.70;19.90;;;1.00;99.90;;;;;;5034519;28;20173;-79
2021/12/05 04:02:47;;;;;;;38.13;19.93;;;0.90;99.90;;;;;;5049157;28;20255;-79
2021/12/05 04:05:18;;;;;;;37.07;18.33;;;1.20;99.90;;;;;;5038045;28;20177;-80
2021/12/05 04:07:46;;;;;;;41.33;19.23;;;1.10;99.90;;;;;;5037189;28;20552;-80
2021/12/05 04:10:13;;;;;;;35.17;18.57;;;1.10;99.90;;;;;;5034847;28;20268;-81
2021/12/05 04:12:39;;;;;;;38.10;18.53;;;1.00;99.90;;;;;;5034816;28;20205;-79
2021/12/05 04:15:17;;;;;;;41.30;18.80;;;1.00;99.90;;;;;;5036161;28;20177;-80
2021/12/05 04:17:43;;;;;;;40.40;18.83;;;1.00;99.90;;;;;;5036586;28;20169;-80
2021/12/05 04:20:12;;;;;;;42.73;19.10;;;1.00;99.90;;;;;;5037101;28;20177;-80
2021/12/05 04:22:38;;;;;;;39.13;17.90;;;1.00;99.90;;;;;;5041667;28;20208;-80
2021/12/05 04:25:09;;;;;;;47.77;19.23;;;1.00;99.90;;;;;;5047218;28;20178;-81
2021/12/05 04:27:36;;;;;;;38.23;19.20;;;1.00;99.90;;;;;;5040946;28;20181;-80
2021/12/05 04:30:05;;;;;;;45.50;19.50;;;1.00;99.90;;;;;;5042220;28;20177;-81
2021/12/05 04:32:32;;;;;;;37.17;19.13;;;1.00;99.90;;;;;;5041837;28;20209;-80
2021/12/05 04:34:58;;;;;;;44.17;20.20;;;1.00;99.90;;;;;;5040542;28;20200;-80
2021/12/05 04:37:25;;;;;;;41.03;18.53;;;1.00;99.90;;;;;;5047687;28;20173;-80
2021/12/05 04:39:51;;;;;;;45.27;18.73;;;1.10;99.90;;;;;;5035750;28;20193;-80
2021/12/05 04:42:17;;;;;;;42.27;19.83;;;1.00;99.90;;;;;;5051959;28;20205;-79
2021/12/05 04:44:48;;;;;;;45.47;19.03;;;1.00;99.90;;;;;;5035890;28;20273;-80
2021/12/05 04:47:14;;;;;;;42.50;19.47;;;1.00;99.90;;;;;;5035365;28;20252;-80
2021/12/05 04:49:40;;;;;;;40.17;19.33;;;1.00;99.90;;;;;;5035145;28;20235;-80
2021/12/05 04:52:14;;;;;;;45.30;20.37;;;1.10;99.90;;;;;;5035535;28;20224;-80
2021/12/05 04:54:41;;;;;;;47.13;19.53;;;1.10;99.90;;;;;;5034892;28;20268;-80
2021/12/05 04:57:07;;;;;;;40.43;19.70;;;1.10;99.90;;;;;;5035020;28;20629;-80
2021/12/05 04:59:36;;;;;;;47.70;19.27;;;1.10;99.90;;;;;;5034542;28;20641;-80
2021/12/05 05:02:07;;;;;;;46.17;20.03;;;1.00;99.90;;;;;;5035012;28;20568;-80
2021/12/05 05:04:40;;;;;;;47.03;19.90;;;1.00;99.90;;;;;;5035151;28;20188;-80
2021/12/05 05:07:14;;;;;;;46.33;21.00;;;0.90;99.90;;;;;;5032734;28;20189;-80
2021/12/05 05:09:40;;;;;;;47.70;20.97;;;0.90;99.90;;;;;;5038502;28;20174;-80
2021/12/05 05:12:06;;;;;;;43.17;19.10;;;0.90;99.90;;;;;;5040395;28;20287;-80
2021/12/05 05:14:33;;;;;;;46.53;19.90;;;0.90;99.90;;;;;;5033120;28;20205;-81
2021/12/05 05:16:58;;;;;;;50.73;21.57;;;0.90;99.90;;;;;;5049622;28;20544;-79
2021/12/05 05:19:30;;;;;;;48.90;20.13;;;0.90;99.90;;;;;;5037426;28;20181;-80
2021/12/05 05:27:16;;;;;;;46.73;20.37;;;1.10;99.90;;;;;;5055379;28;20655;-80
2021/12/05 05:30:01;;;;;;;51.83;21.13;;;1.20;99.90;;;;;;5054717;28;20177;-80
2021/12/05 05:40:43;;;;;;;55.67;21.67;;;1.00;99.90;;;;;;5053883;28;20192;-80
2021/12/05 05:43:27;;;;;;;55.80;21.53;;;0.90;99.90;;;;;;5037157;28;20260;-80
2021/12/05 05:48:38;;;;;;;45.83;20.40;;;0.90;99.90;;;;;;5062066;28;20517;-81
2021/12/05 05:51:06;;;;;;;51.77;22.23;;;0.90;99.90;;;;;;5037876;28;20177;-80
2021/12/05 05:53:32;;;;;;;46.47;20.83;;;0.90;99.90;;;;;;5037598;28;20565;-80
2021/12/05 05:55:58;;;;;;;52.27;20.90;;;0.90;99.90;;;;;;5038011;28;20169;-80
2021/12/05 05:58:40;;;;;;;52.87;21.83;;;0.90;99.90;;;;;;5037306;28;20180;-80
2021/12/05 06:01:14;;;;;;;52.80;21.37;;;0.90;99.90;;;;;;5036100;28;20257;-80
2021/12/05 06:03:41;;;;;;;47.07;19.73;;;0.90;99.90;;;;;;5037824;28;20192;-80
2021/12/05 06:06:10;;;;;;;47.87;20.40;;;0.90;99.90;;;;;;5037901;28;20682;-80
2021/12/05 06:08:39;;;;;;;44.43;20.30;;;0.90;99.90;;;;;;5036483;28;20181;-80
2021/12/05 06:11:08;;;;;;;48.20;21.27;;;0.90;99.90;;;;;;5037471;28;20181;-80
2021/12/05 06:13:35;;;;;;;44.43;20.93;;;0.90;99.90;;;;;;5037141;28;20602;-80
2021/12/05 06:16:02;;;;;;;44.73;19.97;;;0.90;99.90;;;;;;5042241;28;20185;-79
2021/12/05 06:18:28;;;;;;;43.13;18.97;;;0.90;99.90;;;;;;5036737;28;20193;-80
2021/12/05 06:20:55;;;;;;;42.60;20.73;;;0.90;99.90;;;;;;5037187;28;20161;-80
2021/12/05 06:23:21;;;;;;;40.00;20.03;;;0.90;99.90;;;;;;5033883;28;20213;-80
2021/12/05 06:25:49;;;;;;;44.43;19.70;;;1.00;99.90;;;;;;5046433;28;20579;-79
2021/12/05 06:28:19;;;;;;;39.77;20.23;;;1.00;99.90;;;;;;5038526;28;20205;-79
2021/12/05 06:30:55;;;;;;;42.67;19.87;;;1.00;99.90;;;;;;5037433;28;20173;-80
2021/12/05 06:47:09;;;;;;;38.17;18.70;;;0.90;99.90;;;;;;5053947;28;20183;-79
2021/12/05 06:49:35;;;;;;;35.70;19.23;;;1.10;99.90;;;;;;5036395;28;20272;-80
2021/12/05 06:52:02;;;;;;;34.30;17.67;;;1.10;99.90;;;;;;5036596;28;20177;-79
2021/12/05 06:54:28;;;;;;;32.67;17.70;;;1.10;99.90;;;;;;5036243;28;20759;-79
2021/12/05 06:56:53;;;;;;;34.07;18.17;;;1.10;99.90;;;;;;5035908;28;20212;-79
2021/12/05 06:59:19;;;;;;;35.67;18.00;;;1.10;99.90;;;;;;5036216;28;20185;-79
2021/12/05 07:01:48;;;;;;;35.40;18.20;;;0.90;99.90;;;;;;5036784;28;20166;-80
2021/12/05 07:06:59;;;;;;;34.77;17.70;;;1.00;99.90;;;;;;5049201;28;20166;-79
2021/12/05 07:09:26;;;;;;;33.00;17.53;;;0.90;99.90;;;;;;5036033;28;20651;-79
2021/12/05 07:12:21;;;;;;;32.47;17.90;;;0.90;99.90;;;;;;5035741;28;20260;-79
2021/12/05 07:14:47;;;;;;;32.07;18.27;;;1.00;99.90;;;;;;5050055;28;20688;-80
2021/12/05 07:25:30;;;;;;;36.97;18.97;;;0.80;99.90;;;;;;5052735;28;20173;-79
2021/12/05 07:44:03;;;;;;;27.13;16.67;;;0.80;99.90;;;;;;5054698;28;20197;-80
2021/12/05 07:46:28;;;;;;;23.13;15.50;;;0.70;99.90;;;;;;5048153;28;20193;-80
2021/12/05 07:49:08;;;;;;;25.33;15.97;;;0.70;99.90;;;;;;5037095;28;20223;-79
2021/12/05 07:51:38;;;;;;;26.47;16.67;;;0.70;99.90;;;;;;5034741;28;20200;-79
2021/12/05 07:54:11;;;;;;;27.80;17.07;;;0.70;99.90;;;;;;5033425;28;20209;-79
2021/12/05 08:15:24;;;;;;;26.67;16.90;;;1.10;99.90;;;;;;5052238;28;20165;-80
2021/12/05 08:17:52;;;;;;;27.03;17.53;;;1.10;99.90;;;;;;5034006;28;20177;-80
2021/12/05 08:20:28;;;;;;;25.60;17.13;;;1.10;99.90;;;;;;5034951;28;20647;-80
2021/12/05 08:22:54;;;;;;;28.20;17.90;;;0.90;99.90;;;;;;5034897;28;20294;-80
2021/12/05 08:25:24;;;;;;;25.83;16.43;;;0.90;99.90;;;;;;5035064;28;20184;-79
2021/12/05 08:28:21;;;;;;;24.30;15.97;;;0.90;99.90;;;;;;5035928;28;20217;-79
2021/12/05 08:30:58;;;;;;;29.43;17.63;;;1.00;99.90;;;;;;5048672;28;20671;-79
2021/12/05 08:33:40;;;;;;;23.27;15.83;;;1.00;99.90;;;;;;5035382;28;20208;-79
2021/12/05 08:40:10;;;;;;;24.80;15.97;;;0.90;99.90;;;;;;5053218;28;20177;-79
2021/12/05 09:24:06;;;;;;;28.20;17.60;;;0.80;99.90;;;;;;5053966;28;20606;-79
2021/12/05 09:30:01;;;;;;;25.03;15.77;;;0.70;99.90;;;;;;5056485;28;20181;-80
2021/12/05 09:51:52;;;;;;;24.90;16.90;;;0.40;99.90;;;;;;5091732;28;20543;-79
2021/12/05 10:13:18;;;;;;;22.87;15.50;;;0.40;99.90;;;;;;5080036;28;20211;-78
2021/12/05 10:35:46;;;;;;;25.63;16.17;;;0.60;99.90;;;;;;5086851;28;20238;-79
2021/12/05 10:38:19;;;;;;;23.33;15.70;;;0.70;99.90;;;;;;5069532;28;20184;-79
2021/12/05 10:41:05;;;;;;;26.87;16.27;;;0.60;99.90;;;;;;5060078;28;20181;-80
2021/12/05 10:43:32;;;;;;;23.63;15.03;;;0.70;99.90;;;;;;5075784;28;20264;-79
2021/12/05 10:46:10;;;;;;;24.13;17.23;;;0.90;99.90;;;;;;5059707;28;20185;-79
2021/12/05 10:48:40;;;;;;;24.23;16.87;;;0.80;99.90;;;;;;5060113;28;20700;-80
2021/12/05 10:51:09;;;;;;;25.20;17.60;;;0.80;99.90;;;;;;5076715;28;20176;-79
2021/12/05 10:53:44;;;;;;;24.47;16.17;;;1.00;99.90;;;;;;5075130;28;20204;-79
2021/12/05 10:56:29;;;;;;;24.33;16.73;;;1.00;99.90;;;;;;5057351;28;20180;-79
2021/12/05 10:59:06;;;;;;;24.93;16.47;;;1.10;99.90;;;;;;5077249;28;20210;-80
2021/12/05 11:01:46;;;;;;;23.30;16.03;;;1.30;99.90;;;;;;5067497;28;20662;-80
2021/12/05 11:04:30;;;;;;;28.17;17.43;;;1.50;99.90;;;;;;5055956;28;20258;-78
2021/12/05 11:07:08;;;;;;;25.27;16.63;;;1.30;99.90;;;;;;5073247;28;20222;-79
2021/12/05 11:09:43;;;;;;;25.83;16.60;;;1.10;99.90;;;;;;5065097;28;20164;-78
2021/12/05 11:12:33;;;;;;;25.03;16.70;;;1.10;99.90;;;;;;5055839;28;20226;-79
2021/12/05 11:15:18;;;;;;;22.27;16.17;;;1.10;99.90;;;;;;5072462;28;20224;-79
2021/12/05 11:17:47;;;;;;;27.57;18.23;;;1.20;99.90;;;;;;5074255;28;20176;-80
2021/12/05 11:20:21;;;;;;;26.17;17.27;;;1.20;99.90;;;;;;5059282;28;20176;-79
2021/12/05 11:22:50;;;;;;;30.33;19.60;;;1.20;99.90;;;;;;5076709;28;20199;-79
2021/12/05 11:25:19;;;;;;;28.30;17.87;;;1.20;99.90;;;;;;5058060;28;20607;-79
2021/12/05 11:27:47;;;;;;;28.33;18.17;;;1.40;99.90;;;;;;5069374;28;20179;-79
2021/12/05 11:30:33;;;;;;;27.90;18.10;;;1.40;99.90;;;;;;5075716;28;20172;-79
2021/12/05 11:33:17;;;;;;;28.77;18.03;;;1.30;99.90;;;;;;5071717;28;20291;-79
2021/12/05 11:35:50;;;;;;;51.23;20.23;;;1.30;99.90;;;;;;5075463;28;20176;-79
2021/12/05 11:38:28;;;;;;;31.63;21.37;;;1.30;99.90;;;;;;5079565;28;20201;-79
2021/12/05 11:41:07;;;;;;;31.13;19.77;;;1.40;99.90;;;;;;5058717;28;20169;-79
2021/12/05 11:43:54;;;;;;;29.07;19.63;;;1.40;99.90;;;;;;5074905;28;20204;-79
2021/12/05 11:46:35;;;;;;;30.57;20.17;;;1.40;99.90;;;;;;5059075;28;20203;-79
2021/12/05 11:49:13;;;;;;;30.90;19.87;;;1.40;99.90;;;;;;5055154;28;20180;-79
2021/12/05 11:51:58;;;;;;;30.93;19.87;;;1.40;99.90;;;;;;5073032;28;20260;-78
2021/12/05 11:54:24;;;;;;;29.33;19.10;;;1.50;99.90;;;;;;5066565;28;20212;-79
2021/12/05 11:57:15;;;;;;;35.27;20.40;;;1.50;99.90;;;;;;5066872;28;20183;-79
2021/12/05 11:59:55;;;;;;;28.37;19.70;;;1.50;99.90;;;;;;5055371;28;20195;-78
2021/12/05 12:02:36;;;;;;;27.33;19.30;;;1.60;99.90;;;;;;5072721;28;20180;-79
2021/12/05 12:05:04;;;;;;;31.50;19.43;;;1.60;99.90;;;;;;5086464;28;20188;-79
2021/12/05 12:07:49;;;;;;;29.93;20.30;;;1.50;99.90;;;;;;5073097;28;20176;-79
2021/12/05 12:10:16;;;;;;;32.30;21.20;;;1.50;99.90;;;;;;5072465;28;20164;-79
2021/12/05 12:12:59;;;;;;;28.63;19.50;;;1.50;99.90;;;;;;5054926;28;20180;-78
2021/12/05 12:15:28;;;;;;;33.07;20.83;;;1.70;99.90;;;;;;5074520;28;20591;-78
2021/12/05 12:18:03;;;;;;;32.50;21.47;;;1.70;99.90;;;;;;5074858;28;20540;-79
2021/12/05 12:20:35;;;;;;;32.03;21.53;;;1.80;99.90;;;;;;5075639;28;20173;-78
2021/12/05 12:23:03;;;;;;;30.00;20.67;;;1.90;99.90;;;;;;5059554;28;20176;-78
2021/12/05 12:25:50;;;;;;;28.93;20.60;;;2.00;99.90;;;;;;5071794;28;20188;-79
2021/12/05 12:28:16;;;;;;;31.60;21.30;;;2.20;99.90;;;;;;5076718;28;20220;-79
2021/12/05 12:30:45;;;;;;;29.60;20.30;;;2.20;99.90;;;;;;5062651;28;20176;-78
2021/12/05 12:33:22;;;;;;;29.07;20.00;;;2.20;99.90;;;;;;5072868;28;20208;-78
2021/12/05 12:35:50;;;;;;;28.50;20.40;;;2.10;99.90;;;;;;5070879;28;20188;-78
2021/12/05 12:38:25;;;;;;;26.67;18.27;;;2.10;99.90;;;;;;5064043;28;20180;-79
2021/12/05 12:41:21;;;;;;;27.93;18.73;;;1.90;99.90;;;;;;5078653;28;20172;-79
2021/12/05 12:43:52;;;;;;;27.33;19.23;;;1.90;99.90;;;;;;5075068;28;20697;-79
2021/12/05 12:46:29;;;;;;;26.20;19.20;;;2.10;99.90;;;;;;5063601;28;20619;-80
2021/12/05 12:49:20;;;;;;;28.63;20.37;;;2.00;99.90;;;;;;5073930;28;20305;-78
2021/12/05 12:52:14;;;;;;;26.60;19.17;;;1.90;99.90;;;;;;5058691;28;20185;-79
2021/12/05 12:54:49;;;;;;;33.60;22.03;;;1.80;99.90;;;;;;5069318;28;20219;-79
2021/12/05 12:57:33;;;;;;;35.30;22.33;;;1.80;99.90;;;;;;5071030;28;20234;-79
2021/12/05 13:00:10;;;;;;;33.53;22.17;;;1.70;99.90;;;;;;5061918;28;20894;-78
2021/12/05 13:11:20;;;;;;;36.30;23.17;;;1.90;99.90;;;;;;5082490;28;20173;-78
2021/12/05 13:14:06;;;;;;;37.23;23.53;;;1.90;99.90;;;;;;5075479;28;20211;-79
2021/12/05 13:16:36;;;;;;;36.53;23.10;;;1.70;99.90;;;;;;5062547;28;20161;-79
2021/12/05 13:19:16;;;;;;;35.33;22.23;;;1.70;99.90;;;;;;5060090;28;20195;-79
2021/12/05 13:21:45;;;;;;;34.77;23.30;;;1.70;99.90;;;;;;5060878;28;20278;-78
2021/12/05 13:24:38;;;;;;;36.37;23.03;;;1.80;99.90;;;;;;5059282;28;20196;-78
2021/12/05 13:27:06;;;;;;;34.87;23.43;;;1.80;99.90;;;;;;5058555;28;20176;-78
2021/12/05 13:29:46;;;;;;;37.07;24.23;;;1.90;99.90;;;;;;5064664;28;20715;-79
2021/12/05 13:32:16;;;;;;;34.93;23.57;;;1.80;99.90;;;;;;5080290;28;20219;-79
2021/12/05 13:35:11;;;;;;;34.23;22.63;;;1.80;99.90;;;;;;5079326;28;20566;-80
2021/12/05 13:37:49;;;;;;;36.50;24.30;;;1.90;99.90;;;;;;5071964;28;20191;-79
2021/12/05 13:40:26;;;;;;;39.00;24.63;;;1.80;99.90;;;;;;5061156;28;20206;-78
2021/12/05 13:43:01;;;;;;;37.53;24.33;;;1.90;99.90;;;;;;5074729;28;20320;-78
2021/12/05 13:45:42;;;;;;;41.03;26.03;;;1.80;99.90;;;;;;5069823;28;20237;-78
2021/12/05 13:48:29;;;;;;;39.80;25.40;;;1.70;99.90;;;;;;5068452;28;20161;-78
2021/12/05 13:51:04;;;;;;;41.20;25.97;;;1.70;99.90;;;;;;5061232;28;20176;-78
2021/12/05 13:53:36;;;;;;;39.87;25.37;;;1.80;99.90;;;;;;5063030;28;20211;-79
2021/12/05 13:56:11;;;;;;;41.50;25.37;;;1.80;99.90;;;;;;5062737;28;20600;-78
2021/12/05 13:58:41;;;;;;;38.93;25.77;;;2.00;99.90;;;;;;5063237;28;20165;-78
2021/12/05 14:01:32;;;;;;;41.37;26.20;;;2.00;99.90;;;;;;5064402;28;20169;-79
2021/12/05 14:04:23;;;;;;;36.70;24.13;;;1.90;99.90;;;;;;5071669;28;20201;-79
2021/12/05 14:06:58;;;;;;;34.80;22.70;;;1.90;99.90;;;;;;5078989;28;20173;-79
2021/12/05 14:09:30;;;;;;;36.63;23.03;;;2.10;99.90;;;;;;5063471;28;20172;-78
2021/12/05 14:12:30;;;;;;;35.37;24.03;;;2.10;99.90;;;;;;5075622;28;20191;-80
2021/12/05 14:15:00;;;;;;;33.60;21.77;;;2.20;99.90;;;;;;5059522;28;20204;-79
2021/12/05 14:17:40;;;;;;;32.53;21.60;;;2.10;99.90;;;;;;5059122;28;20619;-78
2021/12/05 14:20:20;;;;;;;28.20;20.90;;;2.00;99.90;;;;;;5056288;28;20200;-78
2021/12/05 14:22:49;;;;;;;30.43;21.07;;;1.80;99.90;;;;;;5073595;28;20169;-79
2021/12/05 14:25:21;;;;;;;32.90;22.27;;;1.80;99.90;;;;;;5061127;28;20197;-79
2021/12/05 14:27:55;;;;;;;32.90;21.80;;;1.80;99.90;;;;;;5060409;28;20176;-78
2021/12/05 14:30:25;;;;;;;31.90;21.60;;;1.80;99.90;;;;;;5040115;28;20193;-78
2021/12/05 14:32:57;;;;;;;31.03;20.90;;;1.70;99.90;;;;;;5058081;28;20172;-79
2021/12/05 14:35:28;;;;;;;35.20;21.67;;;1.70;99.90;;;;;;5061028;28;20537;-78
2021/12/05 14:37:54;;;;;;;30.50;21.27;;;1.80;99.90;;;;;;5071658;28;20218;-78
2021/12/05 14:40:25;;;;;;;29.77;20.27;;;1.80;99.90;;;;;;5075330;28;20172;-79
2021/12/05 14:42:52;;;;;;;30.50;20.60;;;1.80;99.90;;;;;;5061414;28;20177;-79
2021/12/05 14:45:26;;;;;;;27.30;19.53;;;1.80;99.90;;;;;;5061828;28;20176;-79
2021/12/05 14:47:54;;;;;;;28.13;19.50;;;1.80;99.90;;;;;;5078187;28;20168;-79
2021/12/05 14:50:30;;;;;;;31.00;19.50;;;1.70;99.90;;;;;;5078020;28;20175;-79
2021/12/05 14:53:00;;;;;;;27.67;19.83;;;1.70;99.90;;;;;;5064912;28;20180;-81
2021/12/05 14:55:30;;;;;;;28.77;19.60;;;1.60;99.90;;;;;;5086237;28;20191;-79
2021/12/05 14:57:59;;;;;;;27.23;18.30;;;1.60;99.90;;;;;;5082437;28;20208;-80
2021/12/05 15:00:27;;;;;;;27.77;18.77;;;1.50;99.90;;;;;;5081760;28;20168;-80
2021/12/05 15:03:17;;;;;;;26.27;17.70;;;1.50;99.90;;;;;;5065931;28;20192;-79
2021/12/05 15:05:59;;;;;;;27.63;18.43;;;1.30;99.90;;;;;;5082813;28;20173;-79
2021/12/05 15:08:31;;;;;;;25.90;17.10;;;1.30;99.90;;;;;;5072430;28;20259;-79
2021/12/05 15:11:03;;;;;;;25.30;17.77;;;1.30;99.90;;;;;;5061540;28;20165;-79
2021/12/05 15:13:34;;;;;;;33.63;20.93;;;1.20;99.90;;;;;;5075345;28;20201;-80
2021/12/05 15:16:00;;;;;;;28.57;18.77;;;1.30;99.90;;;;;;5061951;28;20172;-79
2021/12/05 15:18:32;;;;;;;27.93;18.40;;;1.30;99.90;;;;;;5061970;28;20207;-79
2021/12/05 15:21:02;;;;;;;27.87;18.83;;;1.30;99.90;;;;;;5061536;28;20443;-79
2021/12/05 15:23:32;;;;;;;25.77;17.73;;;1.30;99.90;;;;;;5057045;28;20201;-78
2021/12/05 15:26:06;;;;;;;23.40;16.67;;;1.30;99.90;;;;;;5057385;28;20601;-79
2021/12/05 15:28:35;;;;;;;22.87;16.30;;;0.90;99.90;;;;;;5079262;28;20187;-80
2021/12/05 15:31:05;;;;;;;25.47;17.30;;;0.90;99.90;;;;;;5061553;28;20263;-80
2021/12/05 15:33:33;;;;;;;25.23;17.17;;;1.00;99.90;;;;;;5114409;22;20208;-80
2021/12/05 15:36:00;;;;;;;25.57;17.40;;;1.10;99.90;;;;;;5015882;28;20633;-80
2021/12/05 15:38:29;;;;;;;28.03;17.80;;;1.20;99.90;;;;;;5032157;28;20249;-80
2021/12/05 15:40:59;;;;;;;24.93;17.40;;;1.20;99.90;;;;;;5031345;28;20273;-80
2021/12/05 15:43:26;;;;;;;24.30;17.43;;;1.20;99.90;;;;;;5014001;28;20272;-80
2021/12/05 15:45:55;;;;;;;26.67;18.73;;;1.10;99.90;;;;;;5022129;28;20327;-80
2021/12/05 15:48:27;;;;;;;26.80;17.67;;;1.00;99.90;;;;;;5020857;28;20290;-80
2021/12/05 15:50:53;;;;;;;30.50;19.00;;;1.00;99.90;;;;;;5037378;28;20285;-80
2021/12/05 15:53:20;;;;;;;28.03;18.67;;;0.80;99.90;;;;;;5000405;28;20571;-80
2021/12/05 15:55:57;;;;;;;31.37;19.53;;;0.80;99.90;;;;;;5022383;28;20179;-80
2021/12/05 15:58:52;;;;;;;27.87;18.60;;;0.80;99.90;;;;;;5022479;28;20185;-82
2021/12/05 16:01:23;;;;;;;30.27;20.40;;;1.00;99.90;;;;;;5015650;28;20186;-80
2021/12/05 16:03:50;;;;;;;32.33;20.80;;;1.10;99.90;;;;;;5022949;28;20236;-80
2021/12/05 16:06:18;;;;;;;31.70;21.07;;;1.00;99.90;;;;;;5031474;28;20178;-78
2021/12/05 16:08:46;;;;;;;31.43;20.40;;;1.00;99.90;;;;;;5025339;28;20174;-78
2021/12/05 16:11:15;;;;;;;28.97;19.53;;;1.00;99.90;;;;;;5017366;28;20179;-79
2021/12/05 16:13:42;;;;;;;29.03;18.80;;;1.10;99.90;;;;;;5003188;28;20206;-79
2021/12/05 16:16:20;;;;;;;33.17;21.57;;;1.10;99.90;;;;;;4994511;28;20175;-79
2021/12/05 16:18:54;;;;;;;30.60;19.80;;;1.20;99.90;;;;;;5032827;28;20244;-79
2021/12/05 16:21:28;;;;;;;30.20;20.30;;;1.20;99.90;;;;;;5029731;28;20308;-79
2021/12/05 16:24:08;;;;;;;27.93;19.83;;;1.10;99.90;;;;;;5023724;28;20226;-79
2021/12/05 16:26:34;;;;;;;32.47;20.27;;;1.10;99.90;;;;;;5024205;28;20173;-79
2021/12/05 16:29:08;;;;;;;31.10;19.63;;;1.00;99.90;;;;;;5026688;28;20239;-80
2021/12/05 16:31:40;;;;;;;28.77;18.50;;;1.10;99.90;;;;;;5011651;28;20175;-79
2021/12/05 16:34:09;;;;;;;27.00;18.27;;;1.10;99.90;;;;;;5027679;28;20202;-79
2021/12/05 16:36:47;;;;;;;26.47;17.63;;;1.10;99.90;;;;;;5030333;28;20166;-79
2021/12/05 16:39:19;;;;;;;30.73;21.07;;;1.20;99.90;;;;;;5030717;28;20182;-79
2021/12/05 16:41:52;;;;;;;29.53;19.47;;;1.30;99.90;;;;;;5017806;28;20194;-79
2021/12/05 16:44:24;;;;;;;29.33;18.73;;;1.30;99.90;;;;;;5004858;28;20215;-79
2021/12/05 16:47:16;;;;;;;29.27;19.73;;;1.30;99.90;;;;;;5028254;28;20174;-80
2021/12/05 16:49:49;;;;;;;27.80;18.53;;;1.20;99.90;;;;;;5008563;28;20195;-79
2021/12/05 16:52:18;;;;;;;29.33;19.30;;;1.20;99.90;;;;;;5006672;28;20263;-79
2021/12/05 16:54:53;;;;;;;30.30;20.33;;;1.20;99.90;;;;;;5022520;28;20214;-80
2021/12/05 16:57:52;;;;;;;32.87;20.17;;;1.30;99.90;;;;;;5010041;28;20242;-79
2021/12/05 17:00:23;;;;;;;29.97;19.57;;;1.10;99.90;;;;;;5026069;28;20646;-79
2021/12/05 17:03:15;;;;;;;32.33;21.57;;;1.20;99.90;;;;;;5005015;28;20171;-81
2021/12/05 17:05:44;;;;;;;30.93;20.87;;;1.40;99.90;;;;;;5015887;28;20188;-79
2021/12/05 17:08:13;;;;;;;32.57;20.13;;;1.30;99.90;;;;;;5009932;28;20174;-80
2021/12/05 17:10:59;;;;;;;40.57;23.77;;;1.30;99.90;;;;;;5025676;28;20174;-79
2021/12/05 17:13:55;;;;;;;48.77;27.37;;;1.40;99.90;;;;;;5026247;28;20565;-80
2021/12/05 17:16:28;;;;;;;40.30;23.93;;;1.40;99.90;;;;;;5001755;28;20175;-79
2021/12/05 17:18:56;;;;;;;49.83;28.30;;;1.30;99.90;;;;;;5025493;28;20170;-80
2021/12/05 17:21:23;;;;;;;38.10;23.60;;;1.20;99.90;;;;;;5022535;28;20186;-81
2021/12/05 17:23:58;;;;;;;30.83;20.00;;;1.20;99.90;;;;;;5017179;28;20202;-79
2021/12/05 17:26:34;;;;;;;36.90;23.13;;;1.20;99.90;;;;;;5014888;28;20236;-80
2021/12/05 17:29:08;;;;;;;34.77;21.77;;;1.30;99.90;;;;;;5035289;28;20169;-79
2021/12/05 17:31:40;;;;;;;32.87;20.60;;;1.30;99.90;;;;;;5036666;28;20201;-80
2021/12/05 17:34:09;;;;;;;36.93;23.00;;;1.30;99.90;;;;;;5032614;28;20248;-79
2021/12/05 17:37:09;;;;;;;36.17;22.57;;;1.40;99.90;;;;;;5032401;28;20184;-80
2021/12/05 17:39:38;;;;;;;38.10;21.70;;;1.30;99.90;;;;;;5006203;28;20702;-79
2021/12/05 17:42:10;;;;;;;37.10;22.93;;;1.30;99.90;;;;;;5030970;28;20276;-80
2021/12/05 17:44:37;;;;;;;37.33;22.37;;;1.30;99.90;;;;;;5014749;28;20201;-80
2021/12/05 17:47:06;;;;;;;38.17;23.87;;;1.30;99.90;;;;;;5030105;28;20642;-80
2021/12/05 17:49:34;;;;;;;38.23;23.00;;;1.40;99.90;;;;;;5031864;28;20190;-80
2021/12/05 17:52:02;;;;;;;38.93;24.60;;;1.40;99.90;;;;;;5025707;28;20200;-80
2021/12/05 17:54:55;;;;;;;37.83;23.47;;;1.40;99.90;;;;;;5031421;28;20273;-80
2021/12/05 17:57:33;;;;;;;34.23;21.67;;;1.40;99.90;;;;;;5037646;28;20190;-80
2021/12/05 18:00:12;;;;;;;33.50;22.20;;;1.40;99.90;;;;;;5002144;28;20220;-80
2021/12/05 18:02:47;;;;;;;38.77;24.37;;;1.40;99.90;;;;;;5019396;28;20277;-78
2021/12/05 18:05:21;;;;;;;36.80;22.73;;;1.50;99.90;;;;;;5018408;28;20203;-78
2021/12/05 18:07:49;;;;;;;36.20;22.70;;;1.40;99.90;;;;;;5025639;28;20638;-79
2021/12/05 18:10:20;;;;;;;36.37;22.67;;;1.40;99.90;;;;;;5013436;28;20272;-80
2021/12/05 18:12:46;;;;;;;36.83;22.23;;;1.40;99.90;;;;;;5014994;28;20183;-81
2021/12/05 18:15:26;;;;;;;38.07;23.37;;;1.30;99.90;;;;;;5022617;28;20301;-81
2021/12/05 18:17:57;;;;;;;37.00;22.03;;;1.20;99.90;;;;;;5035160;28;20178;-81
2021/12/05 18:20:25;;;;;;;42.53;24.83;;;1.20;99.90;;;;;;5025238;28;20262;-80